TimeCST,TemperatureF,Dew PointF,Humidity,Sea Level PressureIn,VisibilityMPH,Wind Direction,Wind SpeedMPH,Gust SpeedMPH,PrecipitationIn,Events,Conditions,WindDirDegrees,DateUTC
12:15 AM,17.6,8.6,68,30.27,10.0,South,12.7,-,N/A,,Clear,190,2013-01-15 06:15:00
12:35 AM,17.6,8.6,68,30.26,10.0,South,8.1,-,N/A,,Clear,190,2013-01-15 06:35:00
12:53 AM,17.6,8.6,68,30.26,10.0,South,9.2,-,N/A,,Clear,190,2013-01-15 06:53:00
1:14 AM,17.6,8.6,68,30.25,10.0,South,9.2,-,N/A,,Clear,190,2013-01-15 07:14:00
1:35 AM,17.6,8.6,68,30.25,10.0,Calm,Calm,-,N/A,,Clear,0,2013-01-15 07:35:00
1:55 AM,17.6,8.6,68,30.25,10.0,Calm,Calm,-,N/A,,Clear,0,2013-01-15 07:55:00
2:15 AM,17.6,8.6,68,30.26,10.0,South,6.9,-,N/A,,Clear,190,2013-01-15 08:15:00
2:35 AM,17.6,8.6,68,30.25,10.0,South,6.9,-,N/A,,Clear,190,2013-01-15 08:35:00
3:15 AM,17.6,8.6,68,30.25,10.0,South,4.6,-,N/A,,Clear,190,2013-01-15 09:15:00
3:35 AM,17.6,8.6,68,30.25,10.0,Calm,Calm,-,N/A,,Clear,0,2013-01-15 09:35:00
3:55 AM,17.6,8.6,68,30.24,10.0,Calm,Calm,-,N/A,,Clear,0,2013-01-15 09:55:00
4:15 AM,15.8,8.6,73,30.24,10.0,Calm,Calm,-,N/A,,Clear,0,2013-01-15 10:15:00
4:55 AM,17.6,8.6,68,30.22,10.0,Calm,Calm,-,N/A,,Clear,0,2013-01-15 10:55:00
5:15 AM,17.6,8.6,68,30.23,10.0,Calm,Calm,-,N/A,,Clear,0,2013-01-15 11:15:00
5:34 AM,17.6,6.8,63,30.22,10.0,Calm,Calm,-,N/A,,Clear,0,2013-01-15 11:34:00
5:55 AM,17.6,6.8,63,30.23,10.0,Calm,Calm,-,N/A,,Clear,0,2013-01-15 11:55:00
6:15 AM,15.8,6.8,68,30.23,10.0,Calm,Calm,-,N/A,,Clear,0,2013-01-15 12:15:00
6:35 AM,15.8,6.8,68,30.22,10.0,Calm,Calm,-,N/A,,Clear,0,2013-01-15 12:35:00
6:54 AM,15.8,6.8,68,30.22,10.0,Calm,Calm,-,N/A,,Clear,0,2013-01-15 12:54:00
7:15 AM,14.0,6.8,73,30.22,10.0,Calm,Calm,-,N/A,,Clear,0,2013-01-15 13:15:00
7:35 AM,15.8,6.8,68,30.21,10.0,Calm,Calm,-,N/A,,Clear,0,2013-01-15 13:35:00
7:54 AM,14.0,6.8,73,30.21,10.0,Calm,Calm,-,N/A,,Clear,0,2013-01-15 13:54:00
8:15 AM,15.8,6.8,68,30.21,10.0,South,8.1,-,N/A,,Clear,180,2013-01-15 14:15:00
8:35 AM,17.6,8.6,68,30.21,10.0,South,8.1,-,N/A,,Clear,190,2013-01-15 14:35:00
8:55 AM,17.6,8.6,68,30.21,10.0,South,11.5,-,N/A,,Clear,190,2013-01-15 14:55:00
9:15 AM,19.4,10.4,68,30.21,10.0,South,11.5,-,N/A,,Clear,190,2013-01-15 15:15:00
9:35 AM,19.4,10.4,68,30.21,10.0,South,11.5,-,N/A,,Clear,190,2013-01-15 15:35:00
9:55 AM,21.2,12.2,68,30.20,10.0,SSW,9.2,16.1,N/A,,Clear,200,2013-01-15 15:55:00
10:15 AM,24.8,12.2,59,30.20,10.0,SSW,12.7,-,N/A,,Clear,200,2013-01-15 16:15:00
10:35 AM,24.8,14.0,64,30.19,10.0,SSW,12.7,17.3,N/A,,Clear,200,2013-01-15 16:35:00
10:55 AM,26.6,14.0,59,30.19,10.0,SSW,16.1,-,N/A,,Clear,210,2013-01-15 16:55:00
11:14 AM,28.4,14.0,55,30.18,10.0,SSW,13.8,19.6,N/A,,Clear,210,2013-01-15 17:14:00
11:35 AM,28.4,15.8,59,30.17,10.0,SSW,13.8,19.6,N/A,,Clear,210,2013-01-15 17:35:00
11:55 AM,30.2,15.8,55,30.16,10.0,SSW,12.7,18.4,N/A,,Clear,200,2013-01-15 17:55:00
12:15 PM,30.2,15.8,55,30.15,10.0,South,13.8,-,N/A,,Clear,190,2013-01-15 18:15:00
12:35 PM,30.2,15.8,55,30.14,10.0,South,12.7,-,N/A,,Clear,190,2013-01-15 18:35:00
12:55 PM,30.2,15.8,55,30.13,10.0,SSW,11.5,18.4,N/A,,Clear,200,2013-01-15 18:55:00
1:15 PM,32.0,15.8,51,30.12,10.0,SSW,10.4,20.7,N/A,,Clear,200,2013-01-15 19:15:00
1:35 PM,32.0,12.2,44,30.11,10.0,South,15.0,19.6,N/A,,Clear,190,2013-01-15 19:35:00
1:55 PM,33.8,12.2,41,30.10,10.0,SSW,12.7,21.9,N/A,,Clear,200,2013-01-15 19:55:00
2:15 PM,33.8,10.4,38,30.09,10.0,SSW,13.8,18.4,N/A,,Clear,200,2013-01-15 20:15:00
2:35 PM,33.8,8.6,35,30.09,10.0,SSW,11.5,21.9,N/A,,Clear,200,2013-01-15 20:35:00
2:55 PM,33.8,10.4,38,30.08,10.0,South,16.1,19.6,N/A,,Clear,190,2013-01-15 20:55:00
3:15 PM,33.8,10.4,38,30.07,10.0,SSW,10.4,20.7,N/A,,Clear,200,2013-01-15 21:15:00
3:34 PM,33.8,10.4,38,30.07,10.0,SSW,9.2,16.1,N/A,,Clear,200,2013-01-15 21:34:00
3:54 PM,33.8,10.4,38,30.07,10.0,South,10.4,19.6,N/A,,Clear,190,2013-01-15 21:54:00
4:15 PM,33.8,12.2,41,30.07,10.0,South,9.2,-,N/A,,Clear,190,2013-01-15 22:15:00
4:34 PM,33.8,12.2,41,30.06,10.0,South,10.4,16.1,N/A,,Clear,190,2013-01-15 22:34:00
4:55 PM,32.0,12.2,44,30.06,10.0,SSW,3.5,-,N/A,,Clear,200,2013-01-15 22:55:00
5:14 PM,30.2,12.2,47,30.06,10.0,SSW,6.9,-,N/A,,Clear,200,2013-01-15 23:14:00
5:35 PM,28.4,14.0,55,30.06,10.0,Calm,Calm,-,N/A,,Clear,0,2013-01-15 23:35:00
5:55 PM,28.4,14.0,55,30.05,10.0,South,3.5,-,N/A,,Clear,180,2013-01-15 23:55:00
6:15 PM,28.4,14.0,55,30.04,10.0,South,9.2,-,N/A,,Clear,180,2013-01-16 00:15:00
6:35 PM,26.6,14.0,59,30.03,10.0,South,9.2,-,N/A,,Clear,180,2013-01-16 00:35:00
6:55 PM,26.6,15.8,64,30.03,10.0,South,8.1,-,N/A,,Clear,180,2013-01-16 00:55:00
7:15 PM,26.6,15.8,64,30.03,10.0,South,9.2,-,N/A,,Clear,180,2013-01-16 01:15:00
7:35 PM,26.6,15.8,64,30.02,10.0,South,9.2,-,N/A,,Clear,180,2013-01-16 01:35:00
7:55 PM,26.6,15.8,64,30.00,10.0,South,12.7,-,N/A,,Clear,180,2013-01-16 01:55:00
8:15 PM,26.6,15.8,64,29.99,10.0,South,12.7,-,N/A,,Clear,170,2013-01-16 02:15:00
8:35 PM,26.6,15.8,64,29.97,10.0,South,12.7,-,N/A,,Clear,170,2013-01-16 02:35:00
8:55 PM,26.6,15.8,64,29.95,10.0,South,12.7,-,N/A,,Clear,170,2013-01-16 02:55:00
9:15 PM,26.6,17.6,69,29.93,10.0,South,15.0,-,N/A,,Clear,170,2013-01-16 03:15:00
9:35 PM,26.6,17.6,69,29.93,10.0,South,16.1,21.9,N/A,,Clear,180,2013-01-16 03:35:00
9:55 PM,26.6,17.6,69,29.91,10.0,South,15.0,-,N/A,,Clear,180,2013-01-16 03:55:00
10:15 PM,26.6,17.6,69,29.91,10.0,South,13.8,-,N/A,,Clear,190,2013-01-16 04:15:00
10:35 PM,24.8,17.6,74,29.89,10.0,South,11.5,-,N/A,,Clear,190,2013-01-16 04:35:00
10:54 PM,26.6,15.8,64,29.88,10.0,South,13.8,18.4,N/A,,Clear,190,2013-01-16 04:54:00
11:15 PM,26.6,15.8,64,29.88,10.0,SSW,9.2,-,N/A,,Clear,200,2013-01-16 05:15:00
11:34 PM,26.6,15.8,64,29.88,10.0,Calm,Calm,-,N/A,,Clear,0,2013-01-16 05:34:00